Time;durP1;ratioP1;P1;durP2;ratioP2;P2;SDS_P1;SDS_P2;PMS_P1;PMS_P2;Temp;Humidity;BMP_temperature;BMP_pressure;BME280_temperature;BME280_humidity;BME280_pressure;Samples;Min_cycle;Max_cycle;Signal;HPM_P1;HPM_P2
2022/01/11 00:00:17;;;;;;;76.90;11.97;;;10.90;99.90;;;;;;5079014;28;20186;-66
2022/01/11 00:02:44;;;;;;;78.33;12.27;;;10.80;99.90;;;;;;5084342;28;20181;-65
2022/01/11 00:05:22;;;;;;;84.93;11.40;;;10.80;99.90;;;;;;5083501;28;20289;-65
2022/01/11 00:07:50;;;;;;;73.27;12.03;;;10.90;99.90;;;;;;5084539;28;20194;-65
2022/01/11 00:10:46;;;;;;;74.73;12.83;;;10.90;99.90;;;;;;5084358;28;20285;-65
2022/01/11 00:13:06;;;;;;;64.53;11.90;;;10.90;99.90;;;;;;5082897;28;20198;-65
2022/01/11 00:15:32;;;;;;;77.23;11.80;;;10.80;99.90;;;;;;5083213;28;20562;-65
2022/01/11 00:17:58;;;;;;;84.03;11.47;;;10.80;99.90;;;;;;5101410;28;20185;-65
2022/01/11 00:20:28;;;;;;;80.17;12.10;;;10.80;99.90;;;;;;5085140;28;20269;-65
2022/01/11 00:25:34;;;;;;;85.50;11.97;;;10.80;99.90;;;;;;5084610;28;20182;-67
2022/01/11 00:28:00;;;;;;;69.53;10.70;;;10.80;99.90;;;;;;5079731;28;20509;-66
2022/01/11 00:30:32;;;;;;;91.73;11.23;;;10.80;99.90;;;;;;5081428;28;20198;-66
2022/01/11 00:33:02;;;;;;;90.03;11.03;;;10.80;99.90;;;;;;5089124;28;20191;-65
2022/01/11 00:35:40;;;;;;;72.40;10.53;;;10.80;99.90;;;;;;5074474;28;20547;-65
2022/01/11 00:38:08;;;;;;;76.30;10.70;;;10.80;99.90;;;;;;5077242;28;20192;-66
2022/01/11 00:40:36;;;;;;;72.53;9.83;;;10.80;99.90;;;;;;5083575;28;20185;-66
2022/01/11 00:43:05;;;;;;;81.23;10.73;;;10.80;99.90;;;;;;5084957;28;20304;-67
2022/01/11 00:45:32;;;;;;;96.83;10.20;;;10.80;99.90;;;;;;5069458;28;20190;-68
2022/01/11 00:47:58;;;;;;;80.47;10.13;;;10.80;99.90;;;;;;5081025;28;20183;-66
2022/01/11 00:50:25;;;;;;;68.10;10.57;;;10.80;99.90;;;;;;5085659;28;20186;-66
2022/01/11 00:52:51;;;;;;;79.57;11.20;;;10.80;99.90;;;;;;5077024;28;20238;-67
2022/01/11 00:55:19;;;;;;;80.43;10.37;;;10.80;99.90;;;;;;5085037;28;20206;-66
2022/01/11 00:57:45;;;;;;;89.47;10.40;;;10.80;99.90;;;;;;5080202;28;20618;-66
2022/01/11 01:00:12;;;;;;;80.03;10.10;;;10.80;99.90;;;;;;5064613;28;20855;-66
2022/01/11 01:02:39;;;;;;;70.47;11.13;;;10.80;99.90;;;;;;5073043;28;20282;-65
2022/01/11 01:05:07;;;;;;;58.10;9.93;;;10.80;99.90;;;;;;5084061;28;20200;-66
2022/01/11 01:07:33;;;;;;;70.63;10.53;;;10.80;99.90;;;;;;5079206;28;20253;-65
2022/01/11 01:10:13;;;;;;;70.43;10.17;;;10.80;99.90;;;;;;5084844;28;20197;-68
2022/01/11 01:12:40;;;;;;;59.13;9.63;;;10.80;99.90;;;;;;5081581;28;20193;-64
2022/01/11 01:15:07;;;;;;;71.27;10.37;;;10.80;99.90;;;;;;5081615;28;20223;-68
2022/01/11 01:17:34;;;;;;;75.10;9.93;;;10.80;99.90;;;;;;5081803;28;20190;-67
2022/01/11 01:20:00;;;;;;;70.97;9.37;;;10.80;99.90;;;;;;5082585;28;20193;-64
2022/01/11 01:22:26;;;;;;;62.90;8.63;;;10.80;99.90;;;;;;5067914;28;20221;-65
2022/01/11 01:24:53;;;;;;;75.20;9.17;;;10.80;99.90;;;;;;5082721;28;20197;-65
2022/01/11 01:27:19;;;;;;;76.30;10.47;;;10.80;99.90;;;;;;5080933;28;20190;-64
2022/01/11 01:29:45;;;;;;;64.27;10.10;;;10.80;99.90;;;;;;5084008;28;20182;-65
2022/01/11 01:32:11;;;;;;;72.43;10.63;;;10.80;99.90;;;;;;5063217;28;20221;-66
2022/01/11 01:34:38;;;;;;;74.30;11.07;;;10.80;99.90;;;;;;5090199;28;20810;-66
2022/01/11 01:37:07;;;;;;;68.30;9.13;;;10.80;99.90;;;;;;5079357;28;20791;-66
2022/01/11 01:39:35;;;;;;;71.10;9.00;;;10.90;99.90;;;;;;5071506;28;20174;-66
2022/01/11 01:42:08;;;;;;;64.33;7.80;;;10.90;99.90;;;;;;5083017;28;20262;-66
2022/01/11 01:44:34;;;;;;;34.73;4.63;;;10.90;99.90;;;;;;5080984;28;20284;-67
2022/01/11 01:47:01;;;;;;;52.17;5.70;;;10.80;99.90;;;;;;5082761;28;20187;-66
2022/01/11 01:49:30;;;;;;;38.10;5.73;;;10.80;99.90;;;;;;5080020;28;20195;-66
2022/01/11 01:51:56;;;;;;;28.27;4.43;;;10.80;99.90;;;;;;5073360;28;20181;-66
2022/01/11 01:54:25;;;;;;;33.17;4.83;;;10.70;99.90;;;;;;5077832;28;20202;-67
2022/01/11 01:56:51;;;;;;;29.80;4.97;;;10.70;99.90;;;;;;5101069;28;20190;-65
2022/01/11 01:59:18;;;;;;;41.33;5.47;;;10.70;99.90;;;;;;5084794;28;20197;-65
2022/01/11 02:01:47;;;;;;;33.70;5.73;;;10.70;99.90;;;;;;5083141;28;20834;-66
2022/01/11 02:04:18;;;;;;;41.27;7.00;;;10.60;99.90;;;;;;5093105;28;20839;-65
2022/01/11 02:06:46;;;;;;;49.63;7.27;;;10.70;99.90;;;;;;5096022;28;20205;-64
2022/01/11 02:09:15;;;;;;;31.80;7.20;;;10.70;99.90;;;;;;5083596;28;20213;-64
2022/01/11 02:11:42;;;;;;;45.53;6.87;;;10.70;99.90;;;;;;5088614;28;20254;-63
2022/01/11 02:14:09;;;;;;;37.23;6.10;;;10.70;99.90;;;;;;5084287;28;20245;-64
2022/01/11 02:16:36;;;;;;;44.97;6.57;;;10.70;99.90;;;;;;5087802;28;20186;-62
2022/01/11 02:19:03;;;;;;;38.63;6.03;;;10.70;99.90;;;;;;5088166;28;20814;-64
2022/01/11 02:21:29;;;;;;;41.47;6.37;;;10.70;99.90;;;;;;5086858;28;20186;-63
2022/01/11 02:23:58;;;;;;;38.17;5.80;;;10.70;99.90;;;;;;5087813;28;20183;-63
2022/01/11 02:26:25;;;;;;;37.77;6.53;;;10.70;99.90;;;;;;5085420;28;20881;-64
2022/01/11 02:28:53;;;;;;;52.60;6.83;;;10.70;99.90;;;;;;5087773;28;20212;-63
2022/01/11 02:31:20;;;;;;;38.37;5.87;;;10.70;99.90;;;;;;5089234;28;20193;-63
2022/01/11 02:33:58;;;;;;;56.53;7.50;;;10.70;99.90;;;;;;5082547;28;20206;-64
2022/01/11 02:36:35;;;;;;;48.77;6.33;;;10.70;99.90;;;;;;5061582;28;20638;-63
2022/01/11 02:39:03;;;;;;;39.27;7.67;;;10.70;99.90;;;;;;5080874;28;20185;-64
2022/01/11 02:41:31;;;;;;;34.47;6.23;;;10.60;99.90;;;;;;5075462;28;20190;-64
2022/01/11 02:43:59;;;;;;;42.47;6.50;;;10.60;99.90;;;;;;5082352;28;20190;-63
2022/01/11 02:46:27;;;;;;;63.53;6.80;;;10.60;99.90;;;;;;5086405;28;20329;-67
2022/01/11 02:48:56;;;;;;;44.70;6.87;;;10.60;99.90;;;;;;5086934;28;20213;-66
2022/01/11 02:51:27;;;;;;;38.07;6.20;;;10.70;99.90;;;;;;5065789;28;20186;-66
2022/01/11 02:53:57;;;;;;;32.87;5.73;;;10.60;99.90;;;;;;5084635;28;20211;-66
2022/01/11 02:56:24;;;;;;;56.67;7.40;;;10.70;99.90;;;;;;5080324;28;20177;-66
2022/01/11 02:58:51;;;;;;;38.90;6.27;;;10.70;99.90;;;;;;5084982;28;20208;-67
2022/01/11 03:01:18;;;;;;;39.23;6.63;;;10.60;99.90;;;;;;5067034;28;20208;-67
2022/01/11 03:03:45;;;;;;;46.83;6.73;;;10.70;99.90;;;;;;5095896;28;20186;-68
2022/01/11 03:06:11;;;;;;;36.73;6.37;;;10.70;99.90;;;;;;5080716;28;20580;-66
2022/01/11 03:08:43;;;;;;;49.70;6.67;;;10.70;99.90;;;;;;5070267;28;20198;-66
2022/01/11 03:11:16;;;;;;;38.77;6.80;;;10.70;99.90;;;;;;5077752;28;20189;-66
2022/01/11 03:13:43;;;;;;;44.17;6.53;;;10.70;99.90;;;;;;5086302;28;20210;-65
2022/01/11 03:16:16;;;;;;;48.63;7.37;;;10.70;99.90;;;;;;5085776;28;20194;-66
2022/01/11 03:18:44;;;;;;;36.70;5.90;;;10.70;99.90;;;;;;5086497;28;20189;-64
2022/01/11 03:21:11;;;;;;;35.23;6.37;;;10.60;99.90;;;;;;5082354;28;20269;-64
2022/01/11 03:23:38;;;;;;;46.37;6.77;;;10.60;99.90;;;;;;5069765;28;20226;-64
2022/01/11 03:26:05;;;;;;;48.20;6.17;;;10.60;99.90;;;;;;5087415;28;20783;-64
2022/01/11 03:28:33;;;;;;;40.13;5.57;;;10.50;99.90;;;;;;5087057;28;20278;-65
2022/01/11 03:31:00;;;;;;;36.27;5.63;;;10.50;99.90;;;;;;5089029;28;20218;-66
2022/01/11 03:33:28;;;;;;;35.07;4.60;;;10.40;99.90;;;;;;5086247;28;20214;-67
2022/01/11 03:35:55;;;;;;;24.40;4.33;;;10.30;99.90;;;;;;5071832;28;20186;-67
2022/01/11 03:38:22;;;;;;;30.57;4.23;;;10.20;99.90;;;;;;5097818;28;20185;-66
2022/01/11 03:40:50;;;;;;;28.73;3.97;;;10.10;99.90;;;;;;5095638;28;20198;-66
2022/01/11 03:43:21;;;;;;;25.67;3.60;;;10.10;99.90;;;;;;5071825;28;20226;-67
2022/01/11 03:45:49;;;;;;;22.80;4.60;;;10.10;99.90;;;;;;5101304;28;20753;-66
2022/01/11 03:48:15;;;;;;;24.60;3.60;;;10.10;99.90;;;;;;5079056;28;20231;-65
2022/01/11 03:50:43;;;;;;;21.23;3.93;;;10.00;99.90;;;;;;5078931;28;20183;-66
2022/01/11 03:53:14;;;;;;;17.77;2.73;;;10.00;99.90;;;;;;5066594;28;20182;-66
2022/01/11 03:55:57;;;;;;;25.63;3.50;;;10.00;99.90;;;;;;5083116;28;20196;-66
2022/01/11 03:58:26;;;;;;;26.27;3.57;;;9.90;99.90;;;;;;5074147;28;20186;-66
2022/01/11 04:00:54;;;;;;;27.23;3.57;;;9.90;99.90;;;;;;5078530;28;20765;-66
2022/01/11 04:03:20;;;;;;;35.60;3.93;;;9.90;99.90;;;;;;5073067;28;20623;-66
2022/01/11 04:05:47;;;;;;;29.27;3.97;;;9.90;99.90;;;;;;5081860;28;20220;-66
2022/01/11 04:08:13;;;;;;;25.10;4.07;;;9.90;99.90;;;;;;5078232;28;20183;-65
2022/01/11 04:10:40;;;;;;;35.10;4.83;;;9.80;99.90;;;;;;5082829;28;20189;-65
2022/01/11 04:13:06;;;;;;;25.20;4.13;;;9.90;99.90;;;;;;5080497;28;20229;-65
2022/01/11 04:15:33;;;;;;;31.23;4.13;;;9.90;99.90;;;;;;5083870;28;20201;-65
2022/01/11 04:17:59;;;;;;;22.50;3.70;;;9.80;99.90;;;;;;5084711;28;20190;-65
2022/01/11 04:20:26;;;;;;;22.83;3.83;;;9.90;99.90;;;;;;5094976;28;20457;-64
2022/01/11 04:22:53;;;;;;;24.37;4.83;;;9.90;99.90;;;;;;5078300;28;20650;-64
2022/01/11 04:25:20;;;;;;;18.53;3.67;;;9.90;99.90;;;;;;5077375;28;20193;-67
2022/01/11 04:27:46;;;;;;;21.53;3.40;;;9.90;99.90;;;;;;5086108;28;20984;-66
2022/01/11 04:30:13;;;;;;;20.47;4.03;;;9.80;99.90;;;;;;5080278;28;20182;-66
2022/01/11 04:32:40;;;;;;;32.40;4.63;;;9.80;99.90;;;;;;5085412;28;20194;-67
2022/01/11 04:35:06;;;;;;;29.83;4.60;;;9.80;99.90;;;;;;5072338;28;20400;-66
2022/01/11 04:37:33;;;;;;;36.47;4.70;;;9.80;99.90;;;;;;5081887;28;20272;-66
2022/01/11 04:39:59;;;;;;;32.43;4.60;;;9.80;99.90;;;;;;5077135;28;20182;-66
2022/01/11 04:42:25;;;;;;;27.73;4.60;;;9.80;99.90;;;;;;5076356;28;21069;-66
2022/01/11 04:44:52;;;;;;;34.10;4.93;;;9.80;99.90;;;;;;5082785;28;20289;-67
2022/01/11 04:47:18;;;;;;;26.00;5.33;;;9.80;99.90;;;;;;5082470;28;20704;-64
2022/01/11 04:49:44;;;;;;;31.90;4.57;;;9.80;99.90;;;;;;5085660;28;20190;-64
2022/01/11 04:52:11;;;;;;;31.13;5.23;;;9.80;99.90;;;;;;5078452;28;20275;-65
2022/01/11 04:54:37;;;;;;;26.87;5.90;;;9.90;99.90;;;;;;5079559;28;20544;-64
2022/01/11 04:57:04;;;;;;;33.43;4.80;;;9.90;99.90;;;;;;5085116;28;20190;-65
2022/01/11 04:59:30;;;;;;;31.10;5.00;;;9.90;99.90;;;;;;5083169;28;20185;-65
2022/01/11 05:01:57;;;;;;;40.97;5.87;;;10.00;99.90;;;;;;5097400;28;20182;-66
2022/01/11 05:04:23;;;;;;;35.63;5.77;;;10.00;99.90;;;;;;5080313;28;20253;-65
2022/01/11 05:06:49;;;;;;;35.37;5.20;;;10.00;99.90;;;;;;5077854;28;20239;-65
2022/01/11 05:09:15;;;;;;;44.97;5.63;;;10.00;99.90;;;;;;5076796;28;20191;-65
2022/01/11 05:11:42;;;;;;;30.57;4.93;;;10.10;99.90;;;;;;5076151;28;20663;-65
2022/01/11 05:14:08;;;;;;;30.87;5.60;;;10.10;99.90;;;;;;5080131;28;20221;-65
2022/01/11 05:16:34;;;;;;;37.33;5.57;;;10.00;99.90;;;;;;5085330;28;20665;-65
2022/01/11 05:19:00;;;;;;;25.30;4.13;;;10.00;99.90;;;;;;5082315;28;20186;-65
2022/01/11 05:21:26;;;;;;;35.07;4.80;;;9.90;99.90;;;;;;5076860;28;20181;-64
2022/01/11 05:23:53;;;;;;;43.20;5.23;;;9.90;99.90;;;;;;5081545;28;20213;-64
2022/01/11 05:26:19;;;;;;;28.10;4.97;;;9.90;99.90;;;;;;5083012;28;20206;-64
2022/01/11 05:28:45;;;;;;;31.43;4.67;;;9.90;99.90;;;;;;5075780;28;20182;-65
2022/01/11 05:31:12;;;;;;;35.37;6.23;;;9.90;99.90;;;;;;5081140;28;20216;-64
2022/01/11 05:33:38;;;;;;;46.37;5.73;;;9.90;99.90;;;;;;5078077;28;20308;-64
2022/01/11 05:36:05;;;;;;;20.87;4.33;;;9.90;99.90;;;;;;5070701;28;20273;-64
2022/01/11 05:38:31;;;;;;;26.53;4.20;;;9.90;99.90;;;;;;5084893;28;20197;-64
2022/01/11 05:40:57;;;;;;;26.73;3.80;;;10.00;99.90;;;;;;5077416;28;20201;-65
2022/01/11 05:43:24;;;;;;;28.30;4.37;;;10.00;99.90;;;;;;5094400;28;20216;-64
2022/01/11 05:45:50;;;;;;;21.37;3.20;;;10.00;99.90;;;;;;5072596;28;20708;-64
2022/01/11 05:48:17;;;;;;;30.53;4.47;;;10.00;99.90;;;;;;5082818;28;20224;-64
2022/01/11 05:50:43;;;;;;;24.80;4.00;;;10.00;99.90;;;;;;5082030;28;20204;-63
2022/01/11 05:53:10;;;;;;;29.37;4.40;;;10.00;99.90;;;;;;5083774;28;20874;-63
2022/01/11 05:55:37;;;;;;;43.63;5.77;;;10.00;99.90;;;;;;5084894;28;20216;-64
2022/01/11 05:58:04;;;;;;;28.80;4.50;;;9.90;99.90;;;;;;5077558;28;20630;-63
2022/01/11 06:00:31;;;;;;;27.53;5.10;;;9.90;99.90;;;;;;5069330;28;20191;-63
2022/01/11 06:02:58;;;;;;;35.10;5.23;;;9.90;99.90;;;;;;5097332;28;20220;-63
2022/01/11 06:05:25;;;;;;;28.53;5.00;;;9.90;99.90;;;;;;5075948;28;20516;-63
2022/01/11 06:07:51;;;;;;;28.23;4.80;;;9.90;99.90;;;;;;5083264;28;20205;-65
2022/01/11 06:10:18;;;;;;;24.73;5.30;;;9.90;99.90;;;;;;5077925;28;20741;-62
2022/01/11 06:12:44;;;;;;;31.03;4.10;;;9.80;99.90;;;;;;5078515;28;20279;-63
2022/01/11 06:15:11;;;;;;;27.93;4.63;;;9.80;99.90;;;;;;5074106;28;20225;-62
2022/01/11 06:17:38;;;;;;;25.87;4.80;;;9.80;99.90;;;;;;5083272;28;20190;-63
2022/01/11 06:20:06;;;;;;;28.43;4.23;;;9.80;99.90;;;;;;5083493;28;20190;-63
2022/01/11 06:22:32;;;;;;;25.10;4.07;;;9.80;99.90;;;;;;5075547;28;20179;-62
2022/01/11 06:25:03;;;;;;;21.60;5.33;;;9.80;99.90;;;;;;5081407;28;20222;-62
2022/01/11 06:27:33;;;;;;;25.60;4.27;;;9.80;99.90;;;;;;5083394;28;20307;-62
2022/01/11 06:30:00;;;;;;;31.80;5.20;;;9.80;99.90;;;;;;5077504;28;20559;-64
2022/01/11 06:32:27;;;;;;;22.40;4.17;;;9.80;99.90;;;;;;5076687;28;20230;-64
2022/01/11 06:34:55;;;;;;;26.97;4.27;;;9.80;99.90;;;;;;5078610;28;20222;-64
2022/01/11 06:37:22;;;;;;;19.93;3.80;;;9.90;99.90;;;;;;5069312;28;20213;-64
2022/01/11 06:39:48;;;;;;;24.37;4.10;;;10.00;99.90;;;;;;5077294;28;20190;-64
2022/01/11 06:42:14;;;;;;;23.10;3.33;;;10.00;99.90;;;;;;5073311;28;20702;-64
2022/01/11 06:44:42;;;;;;;22.77;4.00;;;10.10;99.90;;;;;;5071458;28;20195;-65
2022/01/11 06:47:10;;;;;;;27.30;4.03;;;10.10;99.90;;;;;;5082498;28;20205;-64
2022/01/11 06:49:36;;;;;;;23.57;4.53;;;10.10;99.90;;;;;;5076481;28;20201;-64
2022/01/11 06:52:05;;;;;;;28.67;4.17;;;10.00;99.90;;;;;;5080533;28;20260;-63
2022/01/11 06:54:31;;;;;;;24.03;3.73;;;10.00;99.90;;;;;;5083394;28;20306;-63
2022/01/11 06:56:58;;;;;;;29.57;5.67;;;10.10;99.90;;;;;;5084671;28;20182;-62
2022/01/11 06:59:24;;;;;;;40.27;5.73;;;10.10;99.90;;;;;;5094649;28;20970;-63
2022/01/11 07:01:51;;;;;;;41.43;6.23;;;10.10;99.90;;;;;;5070769;28;20638;-65
2022/01/11 07:04:17;;;;;;;39.97;5.47;;;10.20;99.90;;;;;;5087233;28;20186;-66
2022/01/11 07:06:43;;;;;;;39.03;5.93;;;10.30;99.90;;;;;;5079308;28;20263;-65
2022/01/11 07:09:10;;;;;;;45.53;6.07;;;10.40;99.90;;;;;;5086623;28;20340;-65
2022/01/11 07:11:36;;;;;;;54.97;6.37;;;10.40;99.90;;;;;;5086692;28;20807;-65
2022/01/11 07:14:03;;;;;;;46.67;6.50;;;10.50;99.90;;;;;;5094618;28;20567;-65
2022/01/11 07:16:30;;;;;;;54.37;7.17;;;10.50;99.90;;;;;;5076128;28;20190;-65
2022/01/11 07:18:56;;;;;;;56.70;8.07;;;10.50;99.90;;;;;;5085937;28;20626;-65
2022/01/11 07:21:22;;;;;;;50.00;6.73;;;10.60;99.90;;;;;;5083228;28;20186;-65
2022/01/11 07:23:49;;;;;;;44.67;6.20;;;10.60;99.90;;;;;;5088045;28;20209;-65
2022/01/11 07:26:15;;;;;;;45.07;6.33;;;10.70;99.90;;;;;;5081429;28;20213;-65
2022/01/11 07:28:41;;;;;;;45.17;7.23;;;10.70;99.90;;;;;;5086916;28;20560;-65
2022/01/11 07:31:08;;;;;;;45.90;7.17;;;10.70;99.90;;;;;;5079048;28;20190;-65
2022/01/11 07:33:34;;;;;;;46.20;7.57;;;10.70;99.90;;;;;;5086203;28;20250;-65
2022/01/11 07:36:01;;;;;;;56.97;8.30;;;10.70;99.90;;;;;;5068729;28;20186;-67
2022/01/11 07:38:27;;;;;;;56.37;8.20;;;10.70;99.90;;;;;;5082099;28;20179;-67
2022/01/11 07:40:53;;;;;;;61.03;7.80;;;10.70;99.90;;;;;;5086447;28;20190;-67
2022/01/11 07:43:19;;;;;;;46.43;6.93;;;10.70;99.90;;;;;;5080030;28;20251;-66
2022/01/11 07:45:46;;;;;;;52.97;8.53;;;10.70;99.90;;;;;;5081434;28;20187;-67
2022/01/11 07:48:12;;;;;;;56.23;9.07;;;10.70;99.90;;;;;;5082008;28;20884;-66
2022/01/11 07:50:39;;;;;;;56.60;9.23;;;10.70;99.90;;;;;;5072339;28;20355;-66
2022/01/11 07:53:05;;;;;;;50.37;8.10;;;10.70;99.90;;;;;;5094406;28;20194;-67
2022/01/11 07:55:33;;;;;;;60.47;9.00;;;10.70;99.90;;;;;;5082999;28;20806;-67
2022/01/11 07:57:59;;;;;;;56.93;8.03;;;10.80;99.90;;;;;;5079406;28;20634;-67
2022/01/11 08:00:26;;;;;;;62.80;9.97;;;10.80;99.90;;;;;;5084356;28;20185;-66
2022/01/11 08:02:52;;;;;;;61.40;8.83;;;10.90;99.90;;;;;;5096025;28;20191;-66
2022/01/11 08:05:21;;;;;;;64.27;9.13;;;10.90;99.90;;;;;;5085548;28;20215;-66
2022/01/11 08:07:47;;;;;;;62.30;8.83;;;10.90;99.90;;;;;;5082810;28;20186;-65
2022/01/11 08:10:18;;;;;;;63.23;8.63;;;11.00;99.90;;;;;;5082165;28;20538;-65
2022/01/11 08:12:47;;;;;;;69.80;9.77;;;11.00;99.90;;;;;;5084333;28;20190;-65
2022/01/11 08:15:13;;;;;;;72.90;11.00;;;10.90;99.90;;;;;;5080169;28;20221;-65
2022/01/11 08:17:40;;;;;;;68.37;10.73;;;11.00;99.90;;;;;;5073364;28;20191;-66
2022/01/11 08:20:08;;;;;;;54.33;8.63;;;11.00;99.90;;;;;;5079043;28;20277;-64
2022/01/11 08:22:36;;;;;;;60.93;9.53;;;11.00;99.90;;;;;;5079767;28;20245;-64
2022/01/11 08:25:03;;;;;;;68.37;11.07;;;11.00;99.90;;;;;;5085080;28;20785;-64
2022/01/11 08:27:30;;;;;;;64.30;9.07;;;11.00;99.90;;;;;;5082560;28;20189;-65
2022/01/11 08:29:56;;;;;;;64.33;9.80;;;11.00;99.90;;;;;;5085049;28;20217;-65
2022/01/11 08:32:24;;;;;;;70.80;9.67;;;10.90;99.90;;;;;;5079495;28;20217;-65
2022/01/11 08:34:50;;;;;;;69.80;10.27;;;10.90;99.90;;;;;;5099078;28;20943;-65
2022/01/11 08:37:17;;;;;;;72.30;10.00;;;11.00;99.90;;;;;;5080708;28;20190;-65
2022/01/11 08:39:44;;;;;;;72.37;10.93;;;11.00;99.90;;;;;;5074771;28;20238;-65
2022/01/11 08:42:12;;;;;;;66.53;9.53;;;11.00;99.90;;;;;;5080129;28;20194;-66
2022/01/11 08:44:49;;;;;;;64.30;10.17;;;11.10;99.90;;;;;;5098341;27;20678;-65
2022/01/11 08:47:19;;;;;;;71.00;10.53;;;11.10;99.90;;;;;;5074083;28;20201;-66
2022/01/11 08:49:47;;;;;;;66.87;10.10;;;11.10;99.90;;;;;;5080586;28;20186;-67
2022/01/11 08:52:13;;;;;;;87.50;11.47;;;11.10;99.90;;;;;;5097139;28;20217;-66
2022/01/11 08:54:40;;;;;;;66.03;10.13;;;11.20;99.90;;;;;;5084423;28;20256;-67
2022/01/11 08:57:07;;;;;;;69.27;9.80;;;11.20;99.90;;;;;;5066894;28;20189;-67
2022/01/11 08:59:34;;;;;;;81.17;10.47;;;11.20;99.90;;;;;;5081316;28;20179;-68
2022/01/11 09:02:04;;;;;;;75.53;10.70;;;11.20;99.90;;;;;;5081067;28;20190;-68
2022/01/11 09:04:31;;;;;;;83.70;9.80;;;11.20;99.90;;;;;;5083487;28;20184;-68
2022/01/11 09:06:58;;;;;;;74.40;9.80;;;11.20;99.90;;;;;;5074582;28;20272;-67
2022/01/11 09:09:26;;;;;;;71.80;10.43;;;11.30;99.90;;;;;;5071764;28;20210;-67
2022/01/11 09:11:53;;;;;;;67.63;10.13;;;11.30;99.90;;;;;;5076828;28;20252;-67
2022/01/11 09:14:20;;;;;;;65.90;10.37;;;11.30;99.90;;;;;;5082556;28;20209;-67
2022/01/11 09:16:46;;;;;;;58.33;8.50;;;11.30;99.90;;;;;;5077086;28;20186;-68
2022/01/11 09:19:16;;;;;;;68.33;9.83;;;11.30;99.90;;;;;;5077784;28;20197;-68
2022/01/11 09:21:43;;;;;;;61.17;9.37;;;11.40;99.90;;;;;;5076904;28;20600;-68
2022/01/11 09:24:11;;;;;;;90.90;11.63;;;11.40;99.90;;;;;;5083952;28;20194;-68
2022/01/11 09:26:39;;;;;;;77.63;10.00;;;11.30;99.90;;;;;;5078860;28;20181;-68
2022/01/11 09:29:06;;;;;;;68.67;9.07;;;11.40;99.90;;;;;;5064842;28;20203;-68
2022/01/11 09:31:33;;;;;;;78.67;10.20;;;11.40;99.90;;;;;;5082268;28;20213;-68
2022/01/11 09:34:00;;;;;;;76.90;9.03;;;11.40;99.90;;;;;;5078778;28;20998;-68
2022/01/11 09:36:27;;;;;;;61.87;9.03;;;11.50;99.90;;;;;;5079433;28;20201;-68
2022/01/11 09:38:54;;;;;;;62.03;8.33;;;11.60;99.90;;;;;;5084349;28;20182;-68
2022/01/11 09:41:21;;;;;;;63.33;9.13;;;11.60;99.90;;;;;;5069929;28;20190;-68
2022/01/11 09:43:49;;;;;;;72.03;9.23;;;11.60;99.90;;;;;;5082006;28;20220;-68
2022/01/11 09:46:16;;;;;;;59.40;8.57;;;11.70;99.90;;;;;;5083081;28;20210;-68
2022/01/11 09:48:44;;;;;;;64.40;9.40;;;11.70;99.90;;;;;;5074828;28;20885;-67
2022/01/11 09:51:10;;;;;;;66.97;9.77;;;11.70;99.90;;;;;;5082198;28;20308;-67
2022/01/11 09:53:38;;;;;;;56.30;8.80;;;11.70;99.90;;;;;;5087624;28;20203;-68
2022/01/11 09:56:07;;;;;;;63.40;10.80;;;11.70;99.90;;;;;;5097783;28;20273;-68
2022/01/11 09:58:35;;;;;;;54.87;9.30;;;11.80;99.90;;;;;;5078007;28;20181;-68
2022/01/11 10:01:04;;;;;;;65.73;9.17;;;11.80;99.90;;;;;;5080309;28;20239;-68
2022/01/11 10:03:30;;;;;;;51.73;8.80;;;11.70;99.90;;;;;;5076213;28;20185;-68
2022/01/11 10:06:12;;;;;;;66.77;9.33;;;11.80;99.90;;;;;;5080210;28;20217;-68
2022/01/11 10:08:38;;;;;;;62.43;9.17;;;11.80;99.90;;;;;;5078917;28;20275;-68
2022/01/11 10:11:05;;;;;;;62.80;9.07;;;11.80;99.90;;;;;;5065876;28;20622;-68
2022/01/11 10:13:42;;;;;;;52.53;9.40;;;11.80;99.90;;;;;;5066078;28;20748;-68
2022/01/11 10:16:27;;;;;;;58.27;8.93;;;11.90;99.90;;;;;;5078818;28;20803;-68
2022/01/11 10:18:55;;;;;;;56.63;9.77;;;11.90;99.90;;;;;;5094998;28;20186;-69
2022/01/11 10:21:45;;;;;;;57.30;8.30;;;12.00;99.90;;;;;;5080403;28;20262;-68
2022/01/11 10:24:42;;;;;;;66.00;9.63;;;12.00;99.90;;;;;;5077216;28;20237;-68
2022/01/11 10:27:18;;;;;;;60.97;9.43;;;12.10;99.90;;;;;;5082520;28;20198;-68
2022/01/11 10:29:55;;;;;;;60.97;9.67;;;12.10;99.90;;;;;;5082790;28;20190;-68
2022/01/11 10:32:37;;;;;;;56.10;8.67;;;12.20;99.90;;;;;;5091784;28;20193;-68
2022/01/11 10:35:13;;;;;;;50.33;9.83;;;12.20;99.90;;;;;;5082432;28;20347;-68
2022/01/11 10:37:44;;;;;;;51.63;8.10;;;12.30;99.90;;;;;;5087465;28;20240;-68
2022/01/11 10:40:26;;;;;;;75.83;9.83;;;12.40;99.90;;;;;;5076756;28;20198;-68
2022/01/11 10:42:56;;;;;;;66.23;8.77;;;12.40;99.90;;;;;;5086470;28;20230;-69
2022/01/11 10:45:35;;;;;;;67.73;9.30;;;12.30;99.90;;;;;;5081429;28;20198;-69
2022/01/11 10:48:08;;;;;;;48.23;8.10;;;12.30;99.90;;;;;;5075083;28;20229;-68
2022/01/11 10:50:47;;;;;;;51.97;7.73;;;12.40;99.90;;;;;;5078090;28;20196;-68
2022/01/11 10:53:24;;;;;;;54.93;8.20;;;12.40;99.90;;;;;;5099594;28;20205;-68
2022/01/11 10:55:55;;;;;;;66.53;8.60;;;12.50;99.90;;;;;;5080991;28;20195;-68
2022/01/11 10:58:22;;;;;;;51.57;8.50;;;12.50;99.90;;;;;;5062802;28;20521;-68
2022/01/11 11:00:57;;;;;;;52.90;8.60;;;12.50;99.90;;;;;;5074292;28;20193;-68
2022/01/11 11:03:27;;;;;;;52.80;8.70;;;12.60;99.90;;;;;;5078200;28;20559;-68
2022/01/11 11:06:00;;;;;;;61.50;9.07;;;12.60;99.90;;;;;;5059286;28;20736;-68
2022/01/11 11:08:35;;;;;;;57.03;8.80;;;12.70;99.90;;;;;;5100413;28;20182;-68
2022/01/11 11:11:08;;;;;;;53.43;9.10;;;12.70;99.90;;;;;;5077336;28;20520;-68
2022/01/11 11:13:44;;;;;;;64.70;8.70;;;12.70;99.90;;;;;;5096415;27;20526;-68
2022/01/11 11:16:26;;;;;;;60.67;8.57;;;12.80;99.90;;;;;;5068403;28;20213;-68
2022/01/11 11:18:59;;;;;;;53.13;9.07;;;12.90;99.90;;;;;;5094441;28;20957;-68
2022/01/11 11:21:38;;;;;;;63.60;9.73;;;13.00;99.90;;;;;;5075398;28;20522;-68
2022/01/11 11:24:15;;;;;;;55.90;9.23;;;13.00;99.90;;;;;;5081913;28;20189;-68
2022/01/11 11:26:48;;;;;;;55.17;8.67;;;13.00;99.90;;;;;;5079672;28;20702;-68
2022/01/11 11:29:15;;;;;;;47.90;7.17;;;13.00;99.90;;;;;;5081871;28;20209;-68
2022/01/11 11:31:42;;;;;;;53.37;8.50;;;13.00;99.90;;;;;;5082455;28;20216;-68
2022/01/11 11:34:10;;;;;;;57.60;9.27;;;13.00;99.90;;;;;;5063050;28;20218;-68
2022/01/11 11:36:42;;;;;;;51.40;9.10;;;13.10;99.90;;;;;;5082962;28;20923;-68
2022/01/11 11:39:22;;;;;;;54.00;8.30;;;13.10;99.90;;;;;;5077126;28;20182;-68
2022/01/11 11:41:53;;;;;;;40.77;7.53;;;13.10;99.90;;;;;;5081504;28;20183;-68
2022/01/11 11:44:27;;;;;;;44.97;9.33;;;13.00;99.90;;;;;;5088967;28;20198;-68
2022/01/11 11:46:59;;;;;;;59.60;8.30;;;13.00;99.90;;;;;;5091659;28;20639;-68
2022/01/11 11:49:48;;;;;;;55.60;9.17;;;13.00;99.90;;;;;;5080662;28;20182;-68
2022/01/11 11:52:35;;;;;;;57.07;7.77;;;13.00;99.90;;;;;;5058483;28;20634;-69
2022/01/11 12:07:41;;;;;;;57.93;8.50;;;13.00;99.90;;;;;;5074710;28;20578;-67
2022/01/11 12:10:17;;;;;;;46.97;8.40;;;13.10;99.90;;;;;;5058577;28;20312;-68
2022/01/11 12:12:54;;;;;;;44.90;7.60;;;13.00;99.90;;;;;;5068461;28;20186;-67
2022/01/11 12:15:32;;;;;;;50.40;8.20;;;13.10;99.90;;;;;;5042986;28;20293;-70
2022/01/11 12:18:04;;;;;;;59.40;8.53;;;13.10;99.90;;;;;;5043508;28;20201;-67
2022/01/11 12:20:45;;;;;;;54.20;8.50;;;13.10;99.90;;;;;;5060800;28;20186;-67
2022/01/11 12:23:36;;;;;;;60.30;7.77;;;13.10;99.90;;;;;;5077008;28;20265;-67
2022/01/11 12:26:19;;;;;;;46.00;7.60;;;13.20;99.90;;;;;;5060197;28;20187;-67
2022/01/11 12:29:08;;;;;;;61.17;7.87;;;13.20;99.90;;;;;;5059413;28;20194;-67
2022/01/11 12:31:52;;;;;;;56.47;7.40;;;13.20;99.90;;;;;;5064212;28;20190;-67
2022/01/11 12:34:39;;;;;;;52.07;7.50;;;13.20;99.90;;;;;;5072881;28;22169;-67
2022/01/11 12:37:05;;;;;;;48.87;8.03;;;13.20;99.90;;;;;;5062411;28;20270;-67
2022/01/11 12:40:00;;;;;;;63.00;8.37;;;13.20;99.90;;;;;;5060147;28;20195;-67
2022/01/11 12:42:28;;;;;;;60.77;9.13;;;13.20;99.90;;;;;;5060699;28;20193;-67
2022/01/11 12:47:43;;;;;;;67.40;10.80;;;13.20;99.90;;;;;;5057743;28;20237;-67
2022/01/11 12:50:20;;;;;;;52.37;7.37;;;13.10;99.90;;;;;;5043914;28;20294;-66
2022/01/11 12:52:47;;;;;;;41.53;7.47;;;13.20;99.90;;;;;;5058307;28;20965;-66
2022/01/11 12:55:14;;;;;;;44.20;8.17;;;13.10;99.90;;;;;;5062081;28;20215;-66
2022/01/11 12:57:41;;;;;;;58.23;8.43;;;13.10;99.90;;;;;;5062060;28;20195;-66
2022/01/11 13:00:18;;;;;;;45.23;8.30;;;13.10;99.90;;;;;;5060186;28;20245;-66
2022/01/11 13:02:44;;;;;;;44.30;7.93;;;13.10;99.90;;;;;;5066634;28;20197;-65